Anton, Colorado
Current Conditions -  °F | °C
As of 7:53 PM on Friday 31 Oct 2014 (Local Time) from KAKO Reporting Station
Clear Clear  
Wind Chill: 30°   Ceiling: Unl
Heat Index: 40°   Visibility: 10mi
Dew Point: 27°   Wind: 20mph
Humidity: 60%   Direction: 140°SE
Pressure: 30.15"   Gusts: NA
Location:  39.74°N, 103.22°W
Report Text: KAKO 010153Z AUTO 14017KT 10SM CLR 04/M03 A3015 RMK AO2 PK WND 15027/0102 SLP230 T00441028
Loading
Personal Weather Stations






























Interactive Weather Map
Tropical Storm Tracking
New forecast layout! Learn more

10-Day Weather Forecast

Advertisements
Track Severe Weather on mobile